Time,TemperatureF,DewpointF,PressureIn,WindDirection,WindDirectionDegrees,WindSpeedMPH,WindSpeedGustMPH,Humidity,HourlyPrecipIn,Conditions,Clouds,dailyrainin,SoftwareType,DateUTC
2013-02-20 00:05:00,7.5,5.4,30.13,East,90,3.5,3.5,91,0.00,CLR,SKC,0.00,WeatherDisplay:10.37,2013-02-20 06:05:00,
2013-02-20 00:10:00,7.5,5.4,30.13,NE,45,3.5,3.5,91,0.00,CLR,SKC,0.00,WeatherDisplay:10.37,2013-02-20 06:10:00,
2013-02-20 00:15:00,7.3,5.3,30.13,East,90,3.5,3.5,91,0.00,CLR,SKC,0.00,WeatherDisplay:10.37,2013-02-20 06:15:00,
2013-02-20 00:20:00,7.3,5.3,30.13,SE,135,9.2,9.2,91,0.00,CLR,SKC,0.00,WeatherDisplay:10.37,2013-02-20 06:20:00,
2013-02-20 00:26:00,7.2,4.8,30.14,East,90,3.5,3.5,90,0.00,CLR,SKC,0.00,WeatherDisplay:10.37,2013-02-20 06:26:00,
2013-02-20 00:31:00,7.2,5.1,30.14,NE,45,5.8,5.8,91,0.00,CLR,SKC,0.00,WeatherDisplay:10.37,2013-02-20 06:31:00,
2013-02-20 00:36:00,7.2,5.1,30.14,NE,45,3.5,3.5,91,0.00,CLR,SKC,0.00,WeatherDisplay:10.37,2013-02-20 06:36:00,
2013-02-20 00:41:00,7.2,4.8,30.14,SW,225,5.8,5.8,90,0.00,CLR,SKC,0.00,WeatherDisplay:10.37,2013-02-20 06:41:00,
2013-02-20 00:46:00,7.2,5.1,30.14,ENE,68,3.5,3.5,91,0.00,CLR,SKC,0.00,WeatherDisplay:10.37,2013-02-20 06:46:00,
2013-02-20 00:51:00,7.3,5.3,30.14,NE,45,3.5,3.5,91,0.00,CLR,SKC,0.00,WeatherDisplay:10.37,2013-02-20 06:51:00,
2013-02-20 00:57:00,7.3,5.3,30.15,ENE,68,3.5,3.5,91,0.00,CLR,SKC,0.00,WeatherDisplay:10.37,2013-02-20 06:57:00,
2013-02-20 01:02:00,7.3,5.3,30.15,East,90,3.5,3.5,91,0.00,CLR,SKC,0.00,WeatherDisplay:10.37,2013-02-20 07:02:00,
2013-02-20 01:07:00,7.3,5.3,30.15,East,90,3.5,3.5,91,0.00,CLR,SKC,0.00,WeatherDisplay:10.37,2013-02-20 07:07:00,
2013-02-20 01:12:00,7.5,5.4,30.15,SE,135,4.6,4.6,91,0.00,CLR,SKC,0.00,WeatherDisplay:10.37,2013-02-20 07:12:00,
2013-02-20 01:18:00,7.5,5.4,30.15,East,90,3.8,3.8,91,0.00,CLR,SKC,0.00,WeatherDisplay:10.37,2013-02-20 07:18:00,
2013-02-20 01:23:00,7.3,5.3,30.15,NE,45,5.8,5.8,91,0.00,CLR,SKC,0.00,WeatherDisplay:10.37,2013-02-20 07:23:00,
2013-02-20 01:28:00,7.3,5.3,30.16,East,90,2.3,2.3,91,0.00,CLR,SKC,0.00,WeatherDisplay:10.37,2013-02-20 07:28:00,
2013-02-20 01:33:00,7.3,5.3,30.16,East,90,3.5,3.5,91,0.00,CLR,SKC,0.00,WeatherDisplay:10.37,2013-02-20 07:33:00,
2013-02-20 01:39:00,7.3,5.3,30.16,SE,135,3.5,3.5,91,0.00,CLR,SKC,0.00,WeatherDisplay:10.37,2013-02-20 07:39:00,
2013-02-20 01:44:00,7.5,5.4,30.17,NE,45,3.5,3.5,91,0.00,CLR,SKC,0.00,WeatherDisplay:10.37,2013-02-20 07:44:00,
2013-02-20 01:49:00,7.5,5.4,30.17,East,90,3.5,3.5,91,0.00,CLR,SKC,0.00,WeatherDisplay:10.37,2013-02-20 07:49:00,
2013-02-20 01:54:00,7.5,5.4,30.16,NE,45,2.3,2.3,91,0.00,CLR,SKC,0.00,WeatherDisplay:10.37,2013-02-20 07:54:00,
2013-02-20 02:00:00,7.5,5.4,30.17,NE,45,3.5,3.5,91,0.00,CLR,SKC,0.00,WeatherDisplay:10.37,2013-02-20 08:00:00,
2013-02-20 02:05:00,7.5,5.4,30.17,NE,45,3.5,3.5,91,0.00,CLR,SKC,0.00,WeatherDisplay:10.37,2013-02-20 08:05:00,
2013-02-20 02:10:00,7.5,5.4,30.17,South,180,3.5,3.5,91,0.00,CLR,SKC,0.00,WeatherDisplay:10.37,2013-02-20 08:10:00,
2013-02-20 02:15:00,7.5,5.4,30.17,East,90,3.5,3.5,91,0.00,CLR,SKC,0.00,WeatherDisplay:10.37,2013-02-20 08:15:00,
2013-02-20 02:20:00,7.5,5.4,30.18,East,90,4.6,4.6,91,0.00,CLR,SKC,0.00,WeatherDisplay:10.37,2013-02-20 08:20:00,
2013-02-20 02:25:00,7.5,5.4,30.18,East,90,4.6,4.6,91,0.00,CLR,SKC,0.00,WeatherDisplay:10.37,2013-02-20 08:25:00,
2013-02-20 02:31:00,7.5,5.4,30.18,ESE,112,2.3,2.3,91,0.00,CLR,SKC,0.00,WeatherDisplay:10.37,2013-02-20 08:31:00,
2013-02-20 02:36:00,7.5,5.4,30.18,East,90,5.8,5.8,91,0.00,CLR,SKC,0.00,WeatherDisplay:10.37,2013-02-20 08:36:00,
2013-02-20 02:41:00,7.5,5.4,30.18,ESE,112,3.5,3.5,91,0.00,CLR,SKC,0.00,WeatherDisplay:10.37,2013-02-20 08:41:00,
2013-02-20 02:47:00,7.5,5.4,30.18,NE,45,3.5,3.5,91,0.00,CLR,SKC,0.00,WeatherDisplay:10.37,2013-02-20 08:47:00,
2013-02-20 02:52:00,7.5,5.4,30.18,ENE,68,2.3,2.3,91,0.00,CLR,SKC,0.00,WeatherDisplay:10.37,2013-02-20 08:52:00,
2013-02-20 02:57:00,7.5,5.4,30.19,NE,45,2.3,2.3,91,0.00,CLR,SKC,0.00,WeatherDisplay:10.37,2013-02-20 08:57:00,
2013-02-20 03:02:00,7.5,5.4,30.20,NE,45,3.5,3.5,91,0.00,CLR,SKC,0.00,WeatherDisplay:10.37,2013-02-20 09:02:00,
2013-02-20 03:07:00,7.5,5.4,30.20,NE,45,3.5,3.5,91,0.00,CLR,SKC,0.00,WeatherDisplay:10.37,2013-02-20 09:07:00,
2013-02-20 03:13:00,7.5,5.4,30.20,NE,45,2.3,2.3,91,0.00,CLR,SKC,0.00,WeatherDisplay:10.37,2013-02-20 09:13:00,
2013-02-20 03:18:00,7.5,5.4,30.21,NE,45,2.3,0.0,91,0.00,CLR,SKC,0.00,WeatherDisplay:10.37,2013-02-20 09:18:00,
2013-02-20 03:23:00,7.5,5.4,30.21,NE,45,2.3,0.0,91,0.00,CLR,SKC,0.00,WeatherDisplay:10.37,2013-02-20 09:23:00,
2013-02-20 03:28:00,7.5,5.4,30.21,NE,45,1.6,1.6,91,0.00,CLR,SKC,0.00,WeatherDisplay:10.37,2013-02-20 09:28:00,
2013-02-20 03:33:00,7.5,5.4,30.21,East,90,2.3,2.3,91,0.00,CLR,SKC,0.00,WeatherDisplay:10.37,2013-02-20 09:33:00,
2013-02-20 03:38:00,7.5,5.4,30.21,South,180,2.3,2.3,91,0.00,CLR,SKC,0.00,WeatherDisplay:10.37,2013-02-20 09:38:00,
2013-02-20 03:43:00,7.5,5.4,30.22,East,90,2.3,2.3,91,0.00,CLR,SKC,0.00,WeatherDisplay:10.37,2013-02-20 09:43:00,
2013-02-20 03:48:00,7.5,5.4,30.22,East,90,2.3,0.0,91,0.00,CLR,SKC,0.00,WeatherDisplay:10.37,2013-02-20 09:48:00,
2013-02-20 03:54:00,7.5,5.4,30.22,NE,45,2.3,0.0,91,0.00,CLR,SKC,0.00,WeatherDisplay:10.37,2013-02-20 09:54:00,
2013-02-20 03:59:00,7.5,5.4,30.22,East,90,1.1,2.2,91,0.00,CLR,SKC,0.00,WeatherDisplay:10.37,2013-02-20 09:59:00,
2013-02-20 04:04:00,7.5,5.4,30.22,East,90,1.1,1.1,91,0.00,CLR,SKC,0.00,WeatherDisplay:10.37,2013-02-20 10:04:00,
2013-02-20 04:09:00,7.5,5.4,30.23,NE,45,1.1,1.1,91,0.00,CLR,SKC,0.00,WeatherDisplay:10.37,2013-02-20 10:09:00,
2013-02-20 04:14:00,7.5,5.4,30.23,North,0,2.3,2.3,91,0.00,CLR,SKC,0.00,WeatherDisplay:10.37,2013-02-20 10:14:00,
2013-02-20 04:20:00,7.5,5.4,30.22,East,90,1.1,1.1,91,0.00,CLR,SKC,0.00,WeatherDisplay:10.37,2013-02-20 10:20:00,
2013-02-20 04:25:00,7.5,5.4,30.23,South,180,3.5,3.5,91,0.00,CLR,SKC,0.00,WeatherDisplay:10.37,2013-02-20 10:25:00,
2013-02-20 04:30:00,7.5,5.4,30.23,East,90,2.3,2.3,91,0.00,CLR,SKC,0.00,WeatherDisplay:10.37,2013-02-20 10:30:00,
2013-02-20 04:36:00,7.5,5.4,30.24,ENE,68,2.3,2.3,91,0.00,CLR,SKC,0.00,WeatherDisplay:10.37,2013-02-20 10:36:00,
2013-02-20 04:41:00,7.5,5.4,30.24,East,90,3.5,3.5,91,0.00,CLR,SKC,0.00,WeatherDisplay:10.37,2013-02-20 10:41:00,
2013-02-20 04:46:00,7.5,5.4,30.24,NE,45,2.3,2.3,91,0.00,CLR,SKC,0.00,WeatherDisplay:10.37,2013-02-20 10:46:00,
2013-02-20 04:51:00,7.5,5.4,30.25,NE,45,5.8,5.8,91,0.00,CLR,SKC,0.00,WeatherDisplay:10.37,2013-02-20 10:51:00,
2013-02-20 04:56:00,7.5,5.4,30.25,North,0,3.5,3.5,91,0.00,CLR,SKC,0.00,WeatherDisplay:10.37,2013-02-20 10:56:00,
2013-02-20 05:02:00,7.5,5.4,30.25,NE,45,2.3,2.3,91,0.00,CLR,SKC,0.00,WeatherDisplay:10.37,2013-02-20 11:02:00,
2013-02-20 05:07:00,7.3,5.3,30.25,East,90,2.3,0.0,91,0.00,CLR,SKC,0.00,WeatherDisplay:10.37,2013-02-20 11:07:00,
2013-02-20 05:12:00,7.3,5.3,30.25,East,90,1.1,0.0,91,0.00,CLR,SKC,0.00,WeatherDisplay:10.37,2013-02-20 11:12:00,
2013-02-20 05:17:00,7.3,5.3,30.26,East,90,1.1,0.0,91,0.00,CLR,SKC,0.00,WeatherDisplay:10.37,2013-02-20 11:17:00,
2013-02-20 05:23:00,7.3,5.3,30.26,ESE,112,1.1,0.0,91,0.00,CLR,SKC,0.00,WeatherDisplay:10.37,2013-02-20 11:23:00,
2013-02-20 05:28:00,7.5,5.4,30.26,NE,45,8.1,8.1,91,0.00,CLR,SKC,0.00,WeatherDisplay:10.37,2013-02-20 11:28:00,
2013-02-20 05:33:00,7.5,5.4,30.26,East,90,2.3,2.3,91,0.00,CLR,SKC,0.00,WeatherDisplay:10.37,2013-02-20 11:33:00,
2013-02-20 05:39:00,7.7,5.6,30.26,East,90,2.3,2.3,91,0.00,CLR,SKC,0.00,WeatherDisplay:10.37,2013-02-20 11:39:00,
2013-02-20 05:44:00,7.5,5.4,30.26,East,90,2.3,0.0,91,0.00,CLR,SKC,0.00,WeatherDisplay:10.37,2013-02-20 11:44:00,
2013-02-20 05:49:00,7.5,5.4,30.26,North,0,3.5,0.0,91,0.00,CLR,SKC,0.00,WeatherDisplay:10.37,2013-02-20 11:49:00,
2013-02-20 05:54:00,7.5,5.4,30.26,South,180,3.5,0.0,91,0.00,CLR,SKC,0.00,WeatherDisplay:10.37,2013-02-20 11:54:00,
2013-02-20 05:59:00,7.5,5.4,30.27,SE,135,2.3,2.3,91,0.00,CLR,SKC,0.00,WeatherDisplay:10.37,2013-02-20 11:59:00,
2013-02-20 06:05:00,7.5,5.4,30.27,SE,135,1.1,1.1,91,0.00,CLR,SKC,0.00,WeatherDisplay:10.37,2013-02-20 12:05:00,
2013-02-20 06:10:00,7.5,5.4,30.27,East,90,1.1,0.0,91,0.00,CLR,SKC,0.00,WeatherDisplay:10.37,2013-02-20 12:10:00,
2013-02-20 06:15:00,7.5,5.4,30.27,East,90,0.0,0.0,91,0.00,CLR,SKC,0.00,WeatherDisplay:10.37,2013-02-20 12:15:00,
2013-02-20 06:20:00,7.5,5.4,30.27,East,90,0.0,0.0,91,0.00,CLR,SKC,0.00,WeatherDisplay:10.37,2013-02-20 12:20:00,
2013-02-20 06:26:00,7.5,5.4,30.28,South,180,3.5,3.5,91,0.00,CLR,SKC,0.00,WeatherDisplay:10.37,2013-02-20 12:26:00,
2013-02-20 06:31:00,7.5,5.4,30.28,NE,45,1.1,0.0,91,0.00,CLR,SKC,0.00,WeatherDisplay:10.37,2013-02-20 12:31:00,
2013-02-20 06:36:00,7.5,5.4,30.28,East,90,1.1,0.0,91,0.00,CLR,SKC,0.00,WeatherDisplay:10.37,2013-02-20 12:36:00,
2013-02-20 06:41:00,7.5,5.4,30.28,NE,45,1.1,0.0,91,0.00,CLR,SKC,0.00,WeatherDisplay:10.37,2013-02-20 12:41:00,
2013-02-20 06:47:00,7.5,5.4,30.28,SE,135,2.3,0.0,91,0.00,CLR,SKC,0.00,WeatherDisplay:10.37,2013-02-20 12:47:00,
2013-02-20 06:52:00,7.7,5.6,30.29,South,180,3.5,0.0,91,0.00,CLR,SKC,0.00,WeatherDisplay:10.37,2013-02-20 12:52:00,
2013-02-20 06:57:00,7.5,5.4,30.29,North,0,1.6,1.6,91,0.00,CLR,SKC,0.00,WeatherDisplay:10.37,2013-02-20 12:57:00,
2013-02-20 07:02:00,7.5,5.4,30.28,NE,45,2.3,2.3,91,0.00,CLR,SKC,0.00,WeatherDisplay:10.37,2013-02-20 13:02:00,
2013-02-20 07:08:00,7.5,5.4,30.29,East,90,2.3,2.3,91,0.00,CLR,SKC,0.00,WeatherDisplay:10.37,2013-02-20 13:08:00,
2013-02-20 07:13:00,7.5,5.4,30.29,NE,45,1.1,1.1,91,0.00,CLR,SKC,0.00,WeatherDisplay:10.37,2013-02-20 13:13:00,
2013-02-20 07:18:00,7.7,5.6,30.29,East,90,2.3,2.3,91,0.00,CLR,SKC,0.00,WeatherDisplay:10.37,2013-02-20 13:18:00,
2013-02-20 07:23:00,7.7,5.6,30.29,East,90,1.1,0.0,91,0.00,CLR,SKC,0.00,WeatherDisplay:10.37,2013-02-20 13:23:00,
2013-02-20 07:58:00,7.7,5.6,30.29,North,0,1.1,0.0,91,0.00,CLR,SKC,0.00,WeatherDisplay:10.37,2013-02-20 13:58:00,
2013-02-20 08:04:00,8.8,6.7,30.30,NE,45,4.6,4.6,91,0.00,CLR,SKC,0.00,WeatherDisplay:10.37,2013-02-20 14:04:00,
2013-02-20 08:09:00,8.8,6.7,30.30,SE,135,3.5,3.5,91,0.00,CLR,SKC,0.00,WeatherDisplay:10.37,2013-02-20 14:09:00,
2013-02-20 08:14:00,9.0,6.9,30.30,NE,45,4.6,4.6,91,0.00,CLR,SKC,0.00,WeatherDisplay:10.37,2013-02-20 14:14:00,
2013-02-20 08:19:00,9.0,6.9,30.30,East,90,2.3,2.3,91,0.00,CLR,SKC,0.00,WeatherDisplay:10.37,2013-02-20 14:19:00,
2013-02-20 08:25:00,9.1,7.0,30.30,SE,135,1.1,1.1,91,0.00,CLR,SKC,0.00,WeatherDisplay:10.37,2013-02-20 14:25:00,
2013-02-20 08:30:00,9.5,7.4,30.31,North,0,2.3,0.0,91,0.00,CLR,SKC,0.00,WeatherDisplay:10.37,2013-02-20 14:30:00,
2013-02-20 08:35:00,9.5,7.4,30.31,East,90,3.5,0.0,91,0.00,CLR,SKC,0.00,WeatherDisplay:10.37,2013-02-20 14:35:00,
2013-02-20 08:41:00,9.7,7.6,30.31,NE,45,5.8,5.8,91,0.00,CLR,SKC,0.00,WeatherDisplay:10.37,2013-02-20 14:41:00,
2013-02-20 08:46:00,9.9,7.8,30.30,NE,45,2.3,2.3,91,0.00,CLR,SKC,0.00,WeatherDisplay:10.37,2013-02-20 14:46:00,
2013-02-20 08:51:00,10.0,7.9,30.30,SE,135,3.5,3.5,91,0.00,CLR,SKC,0.00,WeatherDisplay:10.37,2013-02-20 14:51:00,
2013-02-20 08:56:00,10.2,8.1,30.30,East,90,1.1,1.1,91,0.00,CLR,SKC,0.00,WeatherDisplay:10.37,2013-02-20 14:56:00,
2013-02-20 09:01:00,10.4,8.3,30.30,ENE,68,3.5,3.5,91,0.00,CLR,SKC,0.00,WeatherDisplay:10.37,2013-02-20 15:01:00,
2013-02-20 09:07:00,10.4,8.3,30.30,ENE,68,3.5,3.5,91,0.00,CLR,SKC,0.00,WeatherDisplay:10.37,2013-02-20 15:07:00,
2013-02-20 09:12:00,10.6,8.2,30.31,NE,45,5.4,5.4,90,0.00,CLR,SKC,0.00,WeatherDisplay:10.37,2013-02-20 15:12:00,
2013-02-20 09:17:00,10.6,8.2,30.31,SSE,158,3.5,3.5,90,0.00,CLR,SKC,0.00,WeatherDisplay:10.37,2013-02-20 15:17:00,
2013-02-20 09:22:00,10.8,8.4,30.31,NE,45,3.5,3.5,90,0.00,CLR,SKC,0.00,WeatherDisplay:10.37,2013-02-20 15:22:00,
2013-02-20 09:27:00,11.1,8.8,30.30,North,0,3.5,3.5,90,0.00,CLR,SKC,0.00,WeatherDisplay:10.37,2013-02-20 15:27:00,
2013-02-20 09:33:00,11.7,9.3,30.31,North,0,2.3,2.3,90,0.00,CLR,SKC,0.00,WeatherDisplay:10.37,2013-02-20 15:33:00,
2013-02-20 09:38:00,12.0,9.7,30.32,NE,45,5.8,5.8,90,0.00,CLR,SKC,0.00,WeatherDisplay:10.37,2013-02-20 15:38:00,
2013-02-20 09:43:00,11.8,9.5,30.31,NE,45,2.3,2.3,90,0.00,CLR,SKC,0.00,WeatherDisplay:10.37,2013-02-20 15:43:00,
2013-02-20 09:49:00,12.2,9.8,30.32,North,0,2.3,2.3,90,0.00,CLR,SKC,0.00,WeatherDisplay:10.37,2013-02-20 15:49:00,
2013-02-20 09:54:00,12.9,10.5,30.31,East,90,2.3,2.3,90,0.00,CLR,SKC,0.00,WeatherDisplay:10.37,2013-02-20 15:54:00,
2013-02-20 09:59:00,13.3,10.9,30.32,East,90,3.5,3.5,90,0.00,CLR,SKC,0.00,WeatherDisplay:10.37,2013-02-20 15:59:00,
2013-02-20 10:04:00,13.5,11.1,30.31,NE,45,3.5,3.5,90,0.00,CLR,SKC,0.00,WeatherDisplay:10.37,2013-02-20 16:04:00,
2013-02-20 10:10:00,13.8,11.4,30.31,NE,45,3.5,3.5,90,0.00,CLR,SKC,0.00,WeatherDisplay:10.37,2013-02-20 16:10:00,
2013-02-20 10:15:00,14.5,11.9,30.31,NE,45,3.5,3.5,89,0.00,CLR,SKC,0.00,WeatherDisplay:10.37,2013-02-20 16:15:00,
2013-02-20 10:20:00,14.9,12.2,30.31,East,90,5.8,5.8,89,0.00,CLR,SKC,0.00,WeatherDisplay:10.37,2013-02-20 16:20:00,
2013-02-20 10:25:00,15.3,12.6,30.31,East,90,3.5,3.5,89,0.00,CLR,SKC,0.00,WeatherDisplay:10.37,2013-02-20 16:25:00,
2013-02-20 10:31:00,15.8,13.1,30.31,East,90,4.6,4.6,89,0.00,CLR,SKC,0.00,WeatherDisplay:10.37,2013-02-20 16:31:00,
2013-02-20 10:36:00,15.8,12.9,30.31,East,90,3.8,3.8,88,0.00,CLR,SKC,0.00,WeatherDisplay:10.37,2013-02-20 16:36:00,
2013-02-20 10:41:00,16.0,13.1,30.32,SE,135,3.5,3.5,88,0.00,CLR,SKC,0.00,WeatherDisplay:10.37,2013-02-20 16:41:00,
2013-02-20 10:46:00,16.2,13.0,30.32,East,90,2.3,2.3,87,0.00,CLR,SKC,0.00,WeatherDisplay:10.37,2013-02-20 16:46:00,
2013-02-20 10:52:00,16.3,12.9,30.31,East,90,3.5,3.5,86,0.00,CLR,SKC,0.00,WeatherDisplay:10.37,2013-02-20 16:52:00,
2013-02-20 10:57:00,16.3,13.1,30.31,North,0,3.5,3.5,87,0.00,CLR,SKC,0.00,WeatherDisplay:10.37,2013-02-20 16:57:00,
2013-02-20 11:02:00,16.5,13.1,30.31,East,90,2.3,2.3,86,0.00,CLR,SKC,0.00,WeatherDisplay:10.37,2013-02-20 17:02:00,
2013-02-20 11:07:00,16.9,13.2,30.31,SE,135,3.5,3.5,85,0.00,CLR,SKC,0.00,WeatherDisplay:10.37,2013-02-20 17:07:00,
2013-02-20 11:13:00,17.2,13.5,30.32,East,90,3.5,3.5,85,0.00,CLR,SKC,0.00,WeatherDisplay:10.37,2013-02-20 17:13:00,
2013-02-20 11:18:00,17.2,13.2,30.32,North,0,3.5,3.5,84,0.00,CLR,SKC,0.00,WeatherDisplay:10.37,2013-02-20 17:18:00,
2013-02-20 11:23:00,17.8,13.8,30.31,North,0,2.3,2.3,84,0.00,CLR,SKC,0.00,WeatherDisplay:10.37,2013-02-20 17:23:00,
2013-02-20 11:28:00,18.3,14.6,30.32,NE,45,6.0,6.0,85,0.00,CLR,SKC,0.00,WeatherDisplay:10.37,2013-02-20 17:28:00,
2013-02-20 11:34:00,18.1,14.1,30.32,West,270,2.3,2.3,84,0.00,CLR,SKC,0.00,WeatherDisplay:10.37,2013-02-20 17:34:00,
2013-02-20 11:39:00,18.9,14.3,30.32,SE,135,3.5,3.5,82,0.00,CLR,SKC,0.00,WeatherDisplay:10.37,2013-02-20 17:39:00,
2013-02-20 11:44:00,19.2,14.9,30.32,NE,45,2.3,2.3,83,0.00,CLR,SKC,0.00,WeatherDisplay:10.37,2013-02-20 17:44:00,
2013-02-20 11:49:00,18.9,14.6,30.32,ENE,68,2.3,2.3,83,0.00,CLR,SKC,0.00,WeatherDisplay:10.37,2013-02-20 17:49:00,
2013-02-20 11:55:00,18.7,14.6,30.32,East,90,2.3,2.3,84,0.00,CLR,SKC,0.00,WeatherDisplay:10.37,2013-02-20 17:55:00,
2013-02-20 12:00:00,18.3,14.0,30.32,North,0,3.5,3.5,83,0.00,CLR,SKC,0.00,WeatherDisplay:10.37,2013-02-20 18:00:00,
2013-02-20 12:05:00,18.3,14.0,30.32,North,0,3.5,3.5,83,0.00,CLR,SKC,0.00,WeatherDisplay:10.37,2013-02-20 18:05:00,
2013-02-20 12:10:00,18.3,13.7,30.32,NE,45,2.3,2.3,82,0.00,CLR,SKC,0.00,WeatherDisplay:10.37,2013-02-20 18:10:00,
2013-02-20 12:16:00,19.8,15.4,30.32,NE,45,3.5,3.5,83,0.00,CLR,SKC,0.00,WeatherDisplay:10.37,2013-02-20 18:16:00,
2013-02-20 12:21:00,19.6,15.3,30.32,NE,45,4.6,4.6,83,0.00,CLR,SKC,0.00,WeatherDisplay:10.37,2013-02-20 18:21:00,
2013-02-20 12:26:00,19.2,14.3,30.32,NE,45,1.1,0.0,81,0.00,CLR,SKC,0.00,WeatherDisplay:10.37,2013-02-20 18:26:00,
2013-02-20 12:31:00,19.8,15.2,30.32,NE,45,2.3,2.3,82,0.00,CLR,SKC,0.00,WeatherDisplay:10.37,2013-02-20 18:31:00,
2013-02-20 12:36:00,19.2,14.1,30.32,NE,45,2.3,2.3,80,0.00,CLR,SKC,0.00,WeatherDisplay:10.37,2013-02-20 18:36:00,
2013-02-20 12:42:00,18.9,13.7,30.33,SE,135,3.5,3.5,80,0.00,CLR,SKC,0.00,WeatherDisplay:10.37,2013-02-20 18:42:00,
2013-02-20 12:47:00,18.7,13.5,30.32,East,90,2.3,2.3,80,0.00,CLR,SKC,0.00,WeatherDisplay:10.37,2013-02-20 18:47:00,
2013-02-20 12:52:00,18.9,13.1,30.32,SE,135,2.3,2.3,78,0.00,CLR,SKC,0.00,WeatherDisplay:10.37,2013-02-20 18:52:00,
2013-02-20 12:57:00,18.9,12.8,30.32,SW,225,9.2,9.2,77,0.00,CLR,SKC,0.00,WeatherDisplay:10.37,2013-02-20 18:57:00,
2013-02-20 13:02:00,18.1,12.1,30.32,North,0,3.5,3.5,77,0.00,CLR,SKC,0.00,WeatherDisplay:10.37,2013-02-20 19:02:00,
2013-02-20 13:08:00,18.5,12.8,30.32,North,0,3.5,3.5,78,0.00,CLR,SKC,0.00,WeatherDisplay:10.37,2013-02-20 19:08:00,
2013-02-20 13:13:00,18.5,11.9,30.33,NE,45,5.8,5.8,75,0.00,CLR,SKC,0.00,WeatherDisplay:10.37,2013-02-20 19:13:00,
2013-02-20 13:18:00,18.9,12.5,30.32,North,0,2.3,2.3,76,0.00,CLR,SKC,0.00,WeatherDisplay:10.37,2013-02-20 19:18:00,
2013-02-20 13:24:00,19.4,13.4,30.32,North,0,2.3,2.3,77,0.00,CLR,SKC,0.00,WeatherDisplay:10.37,2013-02-20 19:24:00,
2013-02-20 13:29:00,19.4,13.4,30.31,NE,45,3.5,0.0,77,0.00,CLR,SKC,0.00,WeatherDisplay:10.37,2013-02-20 19:29:00,
2013-02-20 13:34:00,19.8,13.7,30.32,NW,315,3.5,3.5,77,0.00,CLR,SKC,0.00,WeatherDisplay:10.37,2013-02-20 19:34:00,
2013-02-20 23:07:00,19.8,13.7,30.32,North,0,3.5,0.0,77,0.00,CLR,SKC,0.00,WeatherDisplay:10.37,2013-02-21 05:07:00,
2013-02-20 23:09:00,999.9,99.9,30.34,North,2520,3.5,57.1,10,0.00,,SKC,0.00,WeatherDisplay:10.37,2013-02-21 05:09:00,
2013-02-20 23:13:00,-13.2,-17.6,30.34,SE,135,57.5,0.0,80,0.00,,SKC,0.00,WeatherDisplay:10.37,2013-02-21 05:13:00,